sensor_id;sensor_type;location;lat;lon;timestamp;pressure;altitude;pressure_sealevel;temperature;humidity
36190;BME280;22232;50.914;13.858;2022-10-18T00:00:48;98722.94;;;14.89;100.00
36190;BME280;22232;50.914;13.858;2022-10-18T00:03:16;98734.03;;;14.93;100.00
36190;BME280;22232;50.914;13.858;2022-10-18T00:05:43;98729.47;;;14.94;100.00
36190;BME280;22232;50.914;13.858;2022-10-18T00:08:11;98723.41;;;14.98;100.00
36190;BME280;22232;50.914;13.858;2022-10-18T00:10:38;98727.09;;;15.09;100.00
36190;BME280;22232;50.914;13.858;2022-10-18T00:13:06;98726.63;;;15.12;100.00
36190;BME280;22232;50.914;13.858;2022-10-18T00:15:33;98727.81;;;15.16;100.00
36190;BME280;22232;50.914;13.858;2022-10-18T00:18:01;98739.81;;;15.25;100.00
36190;BME280;22232;50.914;13.858;2022-10-18T00:20:29;98736.06;;;15.26;100.00
36190;BME280;22232;50.914;13.858;2022-10-18T00:22:56;98736.06;;;15.26;100.00
36190;BME280;22232;50.914;13.858;2022-10-18T00:25:24;98737.94;;;15.26;100.00
36190;BME280;22232;50.914;13.858;2022-10-18T00:27:51;98736.31;;;15.25;100.00
36190;BME280;22232;50.914;13.858;2022-10-18T00:30:18;98743.53;;;15.24;100.00
36190;BME280;22232;50.914;13.858;2022-10-18T00:32:46;98744.13;;;15.26;100.00
36190;BME280;22232;50.914;13.858;2022-10-18T00:35:13;98741.22;;;15.28;100.00
36190;BME280;22232;50.914;13.858;2022-10-18T00:37:41;98735.59;;;15.29;100.00
36190;BME280;22232;50.914;13.858;2022-10-18T00:40:09;98737.94;;;15.26;100.00
36190;BME280;22232;50.914;13.858;2022-10-18T00:42:36;98747.63;;;15.27;100.00
36190;BME280;22232;50.914;13.858;2022-10-18T00:45:22;98741.44;;;15.26;100.00
36190;BME280;22232;50.914;13.858;2022-10-18T00:48:01;98738.59;;;15.33;100.00
36190;BME280;22232;50.914;13.858;2022-10-18T00:50:31;98736.03;;;15.38;100.00
36190;BME280;22232;50.914;13.858;2022-10-18T00:53:03;98731.72;;;15.37;100.00
36190;BME280;22232;50.914;13.858;2022-10-18T00:55:31;98734.63;;;15.35;100.00
36190;BME280;22232;50.914;13.858;2022-10-18T00:58:00;98729.72;;;15.32;100.00
36190;BME280;22232;50.914;13.858;2022-10-18T01:00:28;98726.47;;;15.30;100.00
36190;BME280;22232;50.914;13.858;2022-10-18T01:02:57;98722.41;;;15.28;100.00
36190;BME280;22232;50.914;13.858;2022-10-18T01:05:25;98719.94;;;15.26;100.00
36190;BME280;22232;50.914;13.858;2022-10-18T01:21:36;98716.50;;;15.02;100.00
36190;BME280;22232;50.914;13.858;2022-10-18T01:32:27;98722.19;;;15.06;100.00
36190;BME280;22232;50.914;13.858;2022-10-18T01:35:03;98720.81;;;15.03;100.00
36190;BME280;22232;50.914;13.858;2022-10-18T01:37:33;98727.25;;;15.02;100.00
36190;BME280;22232;50.914;13.858;2022-10-18T01:40:04;98724.22;;;14.99;100.00
36190;BME280;22232;50.914;13.858;2022-10-18T01:42:34;98724.91;;;14.94;100.00
36190;BME280;22232;50.914;13.858;2022-10-18T01:45:02;98724.56;;;14.90;100.00
36190;BME280;22232;50.914;13.858;2022-10-18T01:47:30;98724.94;;;14.82;100.00
36190;BME280;22232;50.914;13.858;2022-10-18T01:50:02;98723.31;;;14.69;100.00
36190;BME280;22232;50.914;13.858;2022-10-18T01:52:31;98719.72;;;14.64;100.00
36190;BME280;22232;50.914;13.858;2022-10-18T01:54:59;98724.03;;;14.65;100.00
36190;BME280;22232;50.914;13.858;2022-10-18T01:57:34;98714.69;;;14.67;100.00
36190;BME280;22232;50.914;13.858;2022-10-18T02:00:24;98717.25;;;14.74;100.00
36190;BME280;22232;50.914;13.858;2022-10-18T02:03:09;98719.22;;;14.79;100.00
36190;BME280;22232;50.914;13.858;2022-10-18T02:05:56;98723.63;;;14.85;100.00
36190;BME280;22232;50.914;13.858;2022-10-18T02:08:36;98722.94;;;14.89;100.00
36190;BME280;22232;50.914;13.858;2022-10-18T02:11:06;98719.53;;;14.94;100.00
36190;BME280;22232;50.914;13.858;2022-10-18T02:13:41;98723.63;;;14.97;100.00
36190;BME280;22232;50.914;13.858;2022-10-18T02:16:15;98724.00;;;14.88;100.00
36190;BME280;22232;50.914;13.858;2022-10-18T02:18:56;98720.25;;;14.89;100.00
36190;BME280;22232;50.914;13.858;2022-10-18T02:21:26;98722.34;;;14.87;100.00
36190;BME280;22232;50.914;13.858;2022-10-18T02:23:55;98722.13;;;14.89;100.00
36190;BME280;22232;50.914;13.858;2022-10-18T02:26:24;98728.19;;;14.84;100.00
36190;BME280;22232;50.914;13.858;2022-10-18T02:28:52;98724.34;;;14.80;100.00
36190;BME280;22232;50.914;13.858;2022-10-18T02:31:25;98719.22;;;14.79;100.00
36190;BME280;22232;50.914;13.858;2022-10-18T02:34:20;98721.34;;;14.77;100.00
36190;BME280;22232;50.914;13.858;2022-10-18T02:36:53;98732.28;;;14.75;100.00
36190;BME280;22232;50.914;13.858;2022-10-18T02:39:32;98724.59;;;14.79;100.00
36190;BME280;22232;50.914;13.858;2022-10-18T02:42:02;98723.56;;;14.80;100.00
36190;BME280;22232;50.914;13.858;2022-10-18T02:44:33;98720.75;;;14.75;100.00
36190;BME280;22232;50.914;13.858;2022-10-18T02:47:02;98717.84;;;14.76;100.00
36190;BME280;22232;50.914;13.858;2022-10-18T02:49:30;98716.53;;;14.79;100.00
36190;BME280;22232;50.914;13.858;2022-10-18T02:51:57;98719.31;;;14.84;100.00
36190;BME280;22232;50.914;13.858;2022-10-18T02:54:25;98716.91;;;14.82;100.00
36190;BME280;22232;50.914;13.858;2022-10-18T02:56:53;98722.00;;;14.84;100.00
36190;BME280;22232;50.914;13.858;2022-10-18T02:59:20;98719.81;;;14.81;100.00
36190;BME280;22232;50.914;13.858;2022-10-18T03:01:48;98722.50;;;14.81;100.00
36190;BME280;22232;50.914;13.858;2022-10-18T03:04:15;98721.19;;;14.83;100.00
36190;BME280;22232;50.914;13.858;2022-10-18T03:06:43;98729.84;;;14.85;100.00
36190;BME280;22232;50.914;13.858;2022-10-18T03:09:10;98732.16;;;14.82;100.00
36190;BME280;22232;50.914;13.858;2022-10-18T03:11:38;98734.28;;;14.80;100.00
36190;BME280;22232;50.914;13.858;2022-10-18T03:14:05;98739.31;;;14.76;100.00
36190;BME280;22232;50.914;13.858;2022-10-18T03:16:33;98734.97;;;14.75;100.00
36190;BME280;22232;50.914;13.858;2022-10-18T03:19:00;98735.44;;;14.72;100.00
36190;BME280;22232;50.914;13.858;2022-10-18T03:21:28;98727.66;;;14.71;100.00
36190;BME280;22232;50.914;13.858;2022-10-18T03:23:55;98733.22;;;14.69;100.00
36190;BME280;22232;50.914;13.858;2022-10-18T03:26:24;98729.63;;;14.63;100.00
36190;BME280;22232;50.914;13.858;2022-10-18T03:28:52;98722.50;;;14.57;100.00
36190;BME280;22232;50.914;13.858;2022-10-18T03:31:19;98729.03;;;14.50;100.00
36190;BME280;22232;50.914;13.858;2022-10-18T03:33:47;98725.03;;;14.40;100.00
36190;BME280;22232;50.914;13.858;2022-10-18T03:36:15;98732.16;;;14.35;100.00
36190;BME280;22232;50.914;13.858;2022-10-18T03:38:43;98733.44;;;14.32;100.00
36190;BME280;22232;50.914;13.858;2022-10-18T03:41:10;98736.22;;;14.26;100.00
36190;BME280;22232;50.914;13.858;2022-10-18T03:43:38;98729.91;;;14.20;100.00
36190;BME280;22232;50.914;13.858;2022-10-18T03:46:05;98733.06;;;14.17;100.00
36190;BME280;22232;50.914;13.858;2022-10-18T03:48:33;98730.25;;;14.12;100.00
36190;BME280;22232;50.914;13.858;2022-10-18T03:51:00;98732.81;;;14.07;100.00
36190;BME280;22232;50.914;13.858;2022-10-18T03:53:28;98727.91;;;14.04;100.00
36190;BME280;22232;50.914;13.858;2022-10-18T03:55:55;98737.47;;;13.99;100.00
36190;BME280;22232;50.914;13.858;2022-10-18T03:58:23;98734.06;;;13.92;100.00
36190;BME280;22232;50.914;13.858;2022-10-18T04:00:52;98720.06;;;13.90;100.00
36190;BME280;22232;50.914;13.858;2022-10-18T04:03:21;98732.91;;;13.88;100.00
36190;BME280;22232;50.914;13.858;2022-10-18T04:05:49;98725.78;;;13.82;100.00
36190;BME280;22232;50.914;13.858;2022-10-18T04:08:17;98722.34;;;13.75;100.00
36190;BME280;22232;50.914;13.858;2022-10-18T04:10:44;98723.25;;;13.69;100.00
36190;BME280;22232;50.914;13.858;2022-10-18T04:13:12;98730.75;;;13.67;100.00
36190;BME280;22232;50.914;13.858;2022-10-18T04:15:40;98722.56;;;13.62;100.00
36190;BME280;22232;50.914;13.858;2022-10-18T04:18:07;98718.25;;;13.61;100.00
36190;BME280;22232;50.914;13.858;2022-10-18T04:20:35;98720.31;;;13.59;100.00
36190;BME280;22232;50.914;13.858;2022-10-18T04:23:02;98720.44;;;13.52;100.00
36190;BME280;22232;50.914;13.858;2022-10-18T04:25:30;98724.97;;;13.51;100.00
36190;BME280;22232;50.914;13.858;2022-10-18T04:27:57;98727.66;;;13.51;100.00
36190;BME280;22232;50.914;13.858;2022-10-18T04:30:25;98728.69;;;13.50;100.00
36190;BME280;22232;50.914;13.858;2022-10-18T04:32:52;98724.38;;;13.49;100.00
36190;BME280;22232;50.914;13.858;2022-10-18T04:35:20;98728.09;;;13.48;100.00
36190;BME280;22232;50.914;13.858;2022-10-18T04:37:50;98723.56;;;13.49;100.00
36190;BME280;22232;50.914;13.858;2022-10-18T04:40:18;98730.78;;;13.48;100.00
36190;BME280;22232;50.914;13.858;2022-10-18T04:42:46;98731.34;;;13.50;100.00
36190;BME280;22232;50.914;13.858;2022-10-18T04:45:14;98731.97;;;13.52;100.00
36190;BME280;22232;50.914;13.858;2022-10-18T04:47:41;98732.56;;;13.54;100.00
36190;BME280;22232;50.914;13.858;2022-10-18T04:50:09;98731.50;;;13.56;100.00
36190;BME280;22232;50.914;13.858;2022-10-18T04:52:36;98739.91;;;13.59;100.00
36190;BME280;22232;50.914;13.858;2022-10-18T04:55:04;98735.59;;;13.58;100.00
36190;BME280;22232;50.914;13.858;2022-10-18T04:57:32;98740.97;;;13.58;100.00
36190;BME280;22232;50.914;13.858;2022-10-18T04:59:59;98741.97;;;13.57;100.00
36190;BME280;22232;50.914;13.858;2022-10-18T05:02:27;98736.63;;;13.57;100.00
36190;BME280;22232;50.914;13.858;2022-10-18T05:04:55;98734.19;;;13.56;100.00
36190;BME280;22232;50.914;13.858;2022-10-18T05:07:22;98741.78;;;13.59;100.00
36190;BME280;22232;50.914;13.858;2022-10-18T05:09:50;98727.91;;;13.62;100.00
36190;BME280;22232;50.914;13.858;2022-10-18T05:12:17;98729.09;;;13.66;100.00
36190;BME280;22232;50.914;13.858;2022-10-18T05:14:45;98727.00;;;13.68;100.00
36190;BME280;22232;50.914;13.858;2022-10-18T05:17:12;98715.81;;;13.71;100.00
36190;BME280;22232;50.914;13.858;2022-10-18T05:19:40;98715.38;;;13.74;100.00
36190;BME280;22232;50.914;13.858;2022-10-18T05:22:07;98713.28;;;13.76;100.00
36190;BME280;22232;50.914;13.858;2022-10-18T05:24:38;98721.91;;;13.78;100.00
36190;BME280;22232;50.914;13.858;2022-10-18T05:27:05;98723.31;;;13.81;100.00
36190;BME280;22232;50.914;13.858;2022-10-18T05:29:33;98718.19;;;13.79;100.00
36190;BME280;22232;50.914;13.858;2022-10-18T05:32:00;98713.28;;;13.76;100.00
36190;BME280;22232;50.914;13.858;2022-10-18T05:34:28;98717.00;;;13.75;100.00
36190;BME280;22232;50.914;13.858;2022-10-18T05:36:58;98710.81;;;13.74;100.00
36190;BME280;22232;50.914;13.858;2022-10-18T05:39:26;98711.63;;;13.75;100.00
36190;BME280;22232;50.914;13.858;2022-10-18T05:41:53;98719.81;;;13.80;100.00
36190;BME280;22232;50.914;13.858;2022-10-18T05:44:21;98712.47;;;13.87;100.00
36190;BME280;22232;50.914;13.858;2022-10-18T05:46:48;98708.31;;;13.91;100.00
36190;BME280;22232;50.914;13.858;2022-10-18T05:49:15;98705.16;;;13.94;100.00
36190;BME280;22232;50.914;13.858;2022-10-18T05:51:43;98703.91;;;13.97;100.00
36190;BME280;22232;50.914;13.858;2022-10-18T05:54:11;98707.50;;;14.03;100.00
36190;BME280;22232;50.914;13.858;2022-10-18T05:56:39;98708.22;;;14.10;100.00
36190;BME280;22232;50.914;13.858;2022-10-18T05:59:07;98701.81;;;14.22;100.00
36190;BME280;22232;50.914;13.858;2022-10-18T06:01:39;98709.28;;;14.44;100.00
36190;BME280;22232;50.914;13.858;2022-10-18T06:04:08;98702.19;;;14.73;100.00
36190;BME280;22232;50.914;13.858;2022-10-18T06:06:38;98699.56;;;15.02;100.00
36190;BME280;22232;50.914;13.858;2022-10-18T06:09:06;98694.28;;;15.19;100.00
36190;BME280;22232;50.914;13.858;2022-10-18T06:11:35;98687.16;;;15.41;100.00
36190;BME280;22232;50.914;13.858;2022-10-18T06:14:03;98682.78;;;15.52;100.00
36190;BME280;22232;50.914;13.858;2022-10-18T06:16:31;98675.41;;;15.59;100.00
36190;BME280;22232;50.914;13.858;2022-10-18T06:18:59;98661.78;;;15.66;100.00
36190;BME280;22232;50.914;13.858;2022-10-18T06:21:26;98658.78;;;15.62;100.00
36190;BME280;22232;50.914;13.858;2022-10-18T06:23:56;98665.28;;;15.95;100.00
36190;BME280;22232;50.914;13.858;2022-10-18T06:26:25;98681.81;;;16.03;100.00
36190;BME280;22232;50.914;13.858;2022-10-18T06:28:53;98686.44;;;16.25;100.00
36190;BME280;22232;50.914;13.858;2022-10-18T06:31:20;98676.31;;;16.49;100.00
36190;BME280;22232;50.914;13.858;2022-10-18T06:33:48;98677.09;;;16.83;100.00
36190;BME280;22232;50.914;13.858;2022-10-18T06:36:17;98676.72;;;16.96;100.00
36190;BME280;22232;50.914;13.858;2022-10-18T06:38:45;98675.00;;;17.12;100.00
36190;BME280;22232;50.914;13.858;2022-10-18T06:41:13;98675.59;;;17.14;100.00
36190;BME280;22232;50.914;13.858;2022-10-18T06:43:41;98680.19;;;17.19;100.00
36190;BME280;22232;50.914;13.858;2022-10-18T06:46:09;98681.41;;;17.06;100.00
36190;BME280;22232;50.914;13.858;2022-10-18T06:48:37;98670.50;;;16.96;100.00
36190;BME280;22232;50.914;13.858;2022-10-18T06:51:06;98674.63;;;16.82;100.00
36190;BME280;22232;50.914;13.858;2022-10-18T06:53:36;98665.25;;;16.67;100.00
36190;BME280;22232;50.914;13.858;2022-10-18T06:56:14;98669.13;;;16.55;100.00
36190;BME280;22232;50.914;13.858;2022-10-18T06:58:42;98676.50;;;16.42;100.00
36190;BME280;22232;50.914;13.858;2022-10-18T07:01:12;98674.47;;;16.33;100.00
36190;BME280;22232;50.914;13.858;2022-10-18T07:03:40;98675.69;;;16.25;100.00
36190;BME280;22232;50.914;13.858;2022-10-18T07:06:10;98674.25;;;16.17;100.00
36190;BME280;22232;50.914;13.858;2022-10-18T07:08:38;98670.91;;;15.93;100.00
36190;BME280;22232;50.914;13.858;2022-10-18T07:11:07;98669.72;;;15.72;100.00
36190;BME280;22232;50.914;13.858;2022-10-18T07:13:34;98676.53;;;15.63;100.00
36190;BME280;22232;50.914;13.858;2022-10-18T07:18:43;98684.84;;;15.62;100.00
36190;BME280;22232;50.914;13.858;2022-10-18T07:21:13;98672.03;;;15.52;100.00
36190;BME280;22232;50.914;13.858;2022-10-18T07:23:42;98681.25;;;15.56;100.00
36190;BME280;22232;50.914;13.858;2022-10-18T07:26:15;98676.75;;;15.90;100.00
36190;BME280;22232;50.914;13.858;2022-10-18T07:28:44;98680.03;;;16.09;100.00
36190;BME280;22232;50.914;13.858;2022-10-18T07:31:12;98680.25;;;16.24;100.00
36190;BME280;22232;50.914;13.858;2022-10-18T07:33:40;98667.56;;;16.76;100.00
36190;BME280;22232;50.914;13.858;2022-10-18T07:36:10;98667.06;;;17.01;100.00
36190;BME280;22232;50.914;13.858;2022-10-18T07:38:38;98667.38;;;17.04;100.00
36190;BME280;22232;50.914;13.858;2022-10-18T07:41:07;98670.38;;;17.08;100.00
36190;BME280;22232;50.914;13.858;2022-10-18T07:43:35;98667.63;;;17.03;100.00
36190;BME280;22232;50.914;13.858;2022-10-18T07:46:03;98669.69;;;16.95;100.00
36190;BME280;22232;50.914;13.858;2022-10-18T07:48:31;98661.16;;;16.82;100.00
36190;BME280;22232;50.914;13.858;2022-10-18T07:51:00;98662.56;;;16.84;100.00
36190;BME280;22232;50.914;13.858;2022-10-18T07:53:28;98669.81;;;16.84;100.00
36190;BME280;22232;50.914;13.858;2022-10-18T07:55:57;98662.56;;;16.84;100.00
36190;BME280;22232;50.914;13.858;2022-10-18T07:58:27;98662.06;;;16.70;100.00
36190;BME280;22232;50.914;13.858;2022-10-18T08:00:55;98670.38;;;16.47;100.00
36190;BME280;22232;50.914;13.858;2022-10-18T08:03:23;98664.09;;;16.24;100.00
36190;BME280;22232;50.914;13.858;2022-10-18T08:05:54;98668.78;;;16.12;100.00
36190;BME280;22232;50.914;13.858;2022-10-18T08:08:22;98665.44;;;16.05;100.00
36190;BME280;22232;50.914;13.858;2022-10-18T08:10:50;98660.97;;;16.11;100.00
36190;BME280;22232;50.914;13.858;2022-10-18T08:13:18;98661.69;;;16.06;100.00
36190;BME280;22232;50.914;13.858;2022-10-18T08:15:46;98671.69;;;15.94;100.00
36190;BME280;22232;50.914;13.858;2022-10-18T08:18:14;98681.56;;;15.71;100.00
36190;BME280;22232;50.914;13.858;2022-10-18T08:20:45;98684.81;;;15.45;100.00
36190;BME280;22232;50.914;13.858;2022-10-18T08:23:12;98682.72;;;15.47;100.00
36190;BME280;22232;50.914;13.858;2022-10-18T08:25:40;98681.97;;;15.51;100.00
36190;BME280;22232;50.914;13.858;2022-10-18T08:28:07;98680.09;;;15.52;100.00
36190;BME280;22232;50.914;13.858;2022-10-18T08:30:35;98666.75;;;15.57;100.00
36190;BME280;22232;50.914;13.858;2022-10-18T08:33:03;98655.75;;;15.58;100.00
36190;BME280;22232;50.914;13.858;2022-10-18T08:35:30;98648.91;;;15.51;100.00
36190;BME280;22232;50.914;13.858;2022-10-18T08:37:58;98647.81;;;15.52;100.00
36190;BME280;22232;50.914;13.858;2022-10-18T08:40:26;98629.97;;;15.74;100.00
36190;BME280;22232;50.914;13.858;2022-10-18T08:43:02;98619.44;;;15.73;100.00
36190;BME280;22232;50.914;13.858;2022-10-18T08:45:36;98622.72;;;15.75;100.00
36190;BME280;22232;50.914;13.858;2022-10-18T08:48:39;98625.31;;;15.70;100.00
36190;BME280;22232;50.914;13.858;2022-10-18T08:53:55;98636.47;;;15.78;100.00
36190;BME280;22232;50.914;13.858;2022-10-18T08:56:25;98634.53;;;15.91;100.00
36190;BME280;22232;50.914;13.858;2022-10-18T08:58:53;98624.50;;;16.03;100.00
36190;BME280;22232;50.914;13.858;2022-10-18T09:09:49;98605.25;;;16.50;100.00
36190;BME280;22232;50.914;13.858;2022-10-18T09:15:28;98588.59;;;17.24;100.00
36190;BME280;22232;50.914;13.858;2022-10-18T09:20:56;98591.88;;;17.58;100.00
36190;BME280;22232;50.914;13.858;2022-10-18T09:26:21;98588.28;;;18.12;100.00
36190;BME280;22232;50.914;13.858;2022-10-18T09:31:47;98588.66;;;18.89;100.00
36190;BME280;22232;50.914;13.858;2022-10-18T09:36:57;98567.94;;;19.51;100.00
36190;BME280;22232;50.914;13.858;2022-10-18T09:39:30;98557.94;;;19.87;100.00
36190;BME280;22232;50.914;13.858;2022-10-18T09:44:33;98557.38;;;20.10;100.00
36190;BME280;22232;50.914;13.858;2022-10-18T09:47:09;98562.94;;;20.50;100.00
36190;BME280;22232;50.914;13.858;2022-10-18T09:49:57;98551.28;;;20.49;100.00
36190;BME280;22232;50.914;13.858;2022-10-18T09:52:33;98545.59;;;20.51;100.00
36190;BME280;22232;50.914;13.858;2022-10-18T09:55:08;98547.22;;;20.57;100.00
36190;BME280;22232;50.914;13.858;2022-10-18T09:57:43;98541.00;;;20.46;100.00
36190;BME280;22232;50.914;13.858;2022-10-18T10:00:16;98534.75;;;20.51;100.00
36190;BME280;22232;50.914;13.858;2022-10-18T10:02:45;98532.38;;;20.39;100.00
36190;BME280;22232;50.914;13.858;2022-10-18T10:05:13;98524.88;;;20.10;100.00
36190;BME280;22232;50.914;13.858;2022-10-18T10:07:43;98530.88;;;19.71;100.00
36190;BME280;22232;50.914;13.858;2022-10-18T10:10:22;98529.00;;;19.77;100.00
36190;BME280;22232;50.914;13.858;2022-10-18T10:13:12;98527.34;;;19.86;100.00
36190;BME280;22232;50.914;13.858;2022-10-18T10:15:50;98518.09;;;20.13;100.00
36190;BME280;22232;50.914;13.858;2022-10-18T10:18:20;98510.72;;;20.29;100.00
36190;BME280;22232;50.914;13.858;2022-10-18T10:20:54;98500.69;;;20.34;100.00
36190;BME280;22232;50.914;13.858;2022-10-18T10:23:28;98502.34;;;20.30;100.00
36190;BME280;22232;50.914;13.858;2022-10-18T10:26:05;98505.84;;;20.36;100.00
36190;BME280;22232;50.914;13.858;2022-10-18T10:28:40;98510.28;;;20.71;100.00
36190;BME280;22232;50.914;13.858;2022-10-18T10:31:28;98501.69;;;21.03;100.00
36190;BME280;22232;50.914;13.858;2022-10-18T10:36:48;98498.53;;;21.60;100.00
36190;BME280;22232;50.914;13.858;2022-10-18T10:39:18;98504.13;;;21.73;100.00
36190;BME280;22232;50.914;13.858;2022-10-18T10:41:48;98502.50;;;21.72;100.00
36190;BME280;22232;50.914;13.858;2022-10-18T10:44:28;98504.34;;;21.48;100.00
36190;BME280;22232;50.914;13.858;2022-10-18T10:46:57;98512.59;;;21.33;100.00
36190;BME280;22232;50.914;13.858;2022-10-18T10:52:16;98517.94;;;20.64;100.00
36190;BME280;22232;50.914;13.858;2022-10-18T10:55:04;98526.75;;;20.15;100.00
36190;BME280;22232;50.914;13.858;2022-10-18T10:57:54;98534.13;;;19.84;100.00
36190;BME280;22232;50.914;13.858;2022-10-18T11:00:44;98530.06;;;19.61;100.00
36190;BME280;22232;50.914;13.858;2022-10-18T11:03:15;98531.69;;;19.31;100.00
36190;BME280;22232;50.914;13.858;2022-10-18T11:05:56;98555.47;;;19.09;100.00
36190;BME280;22232;50.914;13.858;2022-10-18T11:08:37;98570.94;;;18.55;100.00
36190;BME280;22232;50.914;13.858;2022-10-18T11:11:22;98603.16;;;17.77;100.00
36190;BME280;22232;50.914;13.858;2022-10-18T11:14:07;98615.47;;;16.92;100.00
36190;BME280;22232;50.914;13.858;2022-10-18T11:17:13;98624.59;;;16.08;100.00
36190;BME280;22232;50.914;13.858;2022-10-18T11:51:08;98654.25;;;14.94;100.00
36190;BME280;22232;50.914;13.858;2022-10-18T11:59:35;98661.63;;;14.98;100.00
36190;BME280;22232;50.914;13.858;2022-10-18T12:05:06;98671.28;;;14.99;100.00
36190;BME280;22232;50.914;13.858;2022-10-18T12:08:04;98680.31;;;14.93;100.00
36190;BME280;22232;50.914;13.858;2022-10-18T12:10:34;98681.72;;;14.96;100.00
36190;BME280;22232;50.914;13.858;2022-10-18T12:13:42;98679.84;;;14.96;100.00
36190;BME280;22232;50.914;13.858;2022-10-18T12:16:11;98690.91;;;15.00;100.00
36190;BME280;22232;50.914;13.858;2022-10-18T12:18:50;98682.84;;;15.00;100.00
36190;BME280;22232;50.914;13.858;2022-10-18T12:21:26;98686.47;;;15.05;100.00
36190;BME280;22232;50.914;13.858;2022-10-18T12:24:07;98691.03;;;15.05;100.00
36190;BME280;22232;50.914;13.858;2022-10-18T12:26:37;98684.38;;;15.07;100.00
36190;BME280;22232;50.914;13.858;2022-10-18T12:32:05;98684.97;;;15.09;100.00
36190;BME280;22232;50.914;13.858;2022-10-18T12:34:55;98677.13;;;15.08;100.00
36190;BME280;22232;50.914;13.858;2022-10-18T12:39:56;98681.72;;;14.96;100.00
36190;BME280;22232;50.914;13.858;2022-10-18T12:42:48;98677.59;;;15.05;100.00
36190;BME280;22232;50.914;13.858;2022-10-18T12:47:50;98681.94;;;14.94;100.00
36190;BME280;22232;50.914;13.858;2022-10-18T12:50:38;98672.53;;;14.80;100.00
36190;BME280;22232;50.914;13.858;2022-10-18T12:53:19;98673.00;;;14.77;100.00
36190;BME280;22232;50.914;13.858;2022-10-18T12:55:51;98664.38;;;14.63;100.00
36190;BME280;22232;50.914;13.858;2022-10-18T13:16:20;98712.69;;;14.75;100.00
36190;BME280;22232;50.914;13.858;2022-10-18T13:18:56;98713.41;;;14.70;100.00
36190;BME280;22232;50.914;13.858;2022-10-18T13:30:29;98721.81;;;14.62;100.00
36190;BME280;22232;50.914;13.858;2022-10-18T13:33:01;98712.59;;;14.58;100.00
36190;BME280;22232;50.914;13.858;2022-10-18T13:38:44;98710.84;;;14.52;100.00
36190;BME280;22232;50.914;13.858;2022-10-18T13:41:20;98703.69;;;14.45;100.00
36190;BME280;22232;50.914;13.858;2022-10-18T13:47:07;98706.25;;;14.40;100.00
36190;BME280;22232;50.914;13.858;2022-10-18T14:06:42;98702.84;;;14.45;100.00
36190;BME280;22232;50.914;13.858;2022-10-18T14:09:27;98700.16;;;14.33;100.00
36190;BME280;22232;50.914;13.858;2022-10-18T14:12:35;98700.91;;;14.40;100.00
36190;BME280;22232;50.914;13.858;2022-10-18T14:15:28;98685.72;;;14.46;100.00
36190;BME280;22232;50.914;13.858;2022-10-18T14:18:12;98685.63;;;14.53;100.00
36190;BME280;22232;50.914;13.858;2022-10-18T14:20:53;98679.78;;;14.56;100.00
36190;BME280;22232;50.914;13.858;2022-10-18T14:23:42;98679.66;;;14.62;100.00
36190;BME280;22232;50.914;13.858;2022-10-18T14:26:16;98682.81;;;14.71;100.00
36190;BME280;22232;50.914;13.858;2022-10-18T14:28:44;98680.72;;;14.73;100.00
36190;BME280;22232;50.914;13.858;2022-10-18T14:31:26;98678.59;;;14.75;100.00
36190;BME280;22232;50.914;13.858;2022-10-18T14:33:56;98679.50;;;14.93;100.00
36190;BME280;22232;50.914;13.858;2022-10-18T14:36:29;98673.38;;;15.09;100.00
36190;BME280;22232;50.914;13.858;2022-10-18T14:39:02;98677.09;;;15.20;100.00
36190;BME280;22232;50.914;13.858;2022-10-18T14:41:32;98679.16;;;15.29;100.00
36190;BME280;22232;50.914;13.858;2022-10-18T14:46:49;98684.00;;;15.44;100.00
36190;BME280;22232;50.914;13.858;2022-10-18T14:49:19;98683.09;;;15.38;100.00
36190;BME280;22232;50.914;13.858;2022-10-18T14:51:51;98684.22;;;15.43;100.00
36190;BME280;22232;50.914;13.858;2022-10-18T14:54:23;98690.44;;;15.43;100.00
36190;BME280;22232;50.914;13.858;2022-10-18T14:56:59;98697.91;;;15.41;100.00
36190;BME280;22232;50.914;13.858;2022-10-18T14:59:30;98700.75;;;15.34;100.00
36190;BME280;22232;50.914;13.858;2022-10-18T15:02:21;98706.50;;;15.26;100.00
36190;BME280;22232;50.914;13.858;2022-10-18T15:05:04;98712.38;;;15.11;100.00
36190;BME280;22232;50.914;13.858;2022-10-18T15:07:32;98707.84;;;15.00;100.00
36190;BME280;22232;50.914;13.858;2022-10-18T15:10:02;98712.19;;;14.89;100.00
36190;BME280;22232;50.914;13.858;2022-10-18T15:12:31;98713.97;;;14.84;100.00
36190;BME280;22232;50.914;13.858;2022-10-18T15:15:16;98711.63;;;14.76;100.00
36190;BME280;22232;50.914;13.858;2022-10-18T15:17:44;98717.72;;;14.71;100.00
36190;BME280;22232;50.914;13.858;2022-10-18T15:20:29;98712.81;;;14.68;100.00
36190;BME280;22232;50.914;13.858;2022-10-18T15:23:21;98710.34;;;14.66;100.00
36190;BME280;22232;50.914;13.858;2022-10-18T15:25:50;98709.53;;;14.66;100.00
36190;BME280;22232;50.914;13.858;2022-10-18T15:28:27;98715.38;;;14.63;100.00
36190;BME280;22232;50.914;13.858;2022-10-18T15:30:56;98708.97;;;14.64;100.00
36190;BME280;22232;50.914;13.858;2022-10-18T15:33:25;98710.38;;;14.55;100.00
36190;BME280;22232;50.914;13.858;2022-10-18T15:35:53;98715.63;;;14.61;100.00
36190;BME280;22232;50.914;13.858;2022-10-18T15:38:25;98714.22;;;14.59;100.00
36190;BME280;22232;50.914;13.858;2022-10-18T15:40:53;98708.97;;;14.64;100.00
36190;BME280;22232;50.914;13.858;2022-10-18T15:45:56;98719.25;;;14.55;100.00